createdAt,value
2022-08-10T00:00:24.441Z,55.50
2022-08-10T00:02:53.472Z,55.59
2022-08-10T00:05:21.368Z,55.63
2022-08-10T00:07:49.244Z,55.85
2022-08-10T00:10:18.089Z,56.08
2022-08-10T00:12:53.446Z,56.29
2022-08-10T00:15:44.371Z,56.12
2022-08-10T00:18:10.377Z,56.70
2022-08-10T00:20:55.806Z,56.82
2022-08-10T00:23:22.673Z,57.19
2022-08-10T00:25:49.544Z,57.57
2022-08-10T00:28:16.436Z,57.51
2022-08-10T00:30:43.351Z,57.44
2022-08-10T00:33:10.276Z,57.30
2022-08-10T00:35:37.235Z,57.40
2022-08-10T00:38:04.091Z,57.64
2022-08-10T00:40:36.964Z,57.80
2022-08-10T00:43:06.464Z,57.96
2022-08-10T00:45:34.217Z,57.96
2022-08-10T00:48:01.079Z,58.22
2022-08-10T00:50:29.339Z,58.32
2022-08-10T00:52:56.395Z,58.47
2022-08-10T00:55:23.523Z,58.63
2022-08-10T00:57:55.343Z,59.01
2022-08-10T01:00:24.062Z,59.22
2022-08-10T01:02:52.068Z,59.50
2022-08-10T01:05:20.583Z,59.41
2022-08-10T01:08:03.200Z,59.36
2022-08-10T01:10:38.724Z,59.79
2022-08-10T01:13:25.334Z,59.93
2022-08-10T01:16:27.703Z,60.18
2022-08-10T01:18:57.506Z,60.29
2022-08-10T01:21:46.215Z,60.22
2022-08-10T01:24:41.560Z,60.47
2022-08-10T01:27:29.592Z,60.43
2022-08-10T01:30:08.843Z,60.41
2022-08-10T01:33:03.296Z,60.88
2022-08-10T01:35:41.409Z,61.17
2022-08-10T01:38:29.686Z,61.23
2022-08-10T01:41:07.117Z,61.21
2022-08-10T01:43:40.911Z,61.42
2022-08-10T01:46:10.955Z,61.46
2022-08-10T01:48:47.949Z,61.45
2022-08-10T01:51:21.003Z,61.49
2022-08-10T01:53:54.570Z,61.57
2022-08-10T01:56:24.763Z,61.59
2022-08-10T01:58:56.658Z,61.76
2022-08-10T02:01:26.239Z,61.81
2022-08-10T02:04:05.331Z,61.75
2022-08-10T02:06:37.141Z,61.90
2022-08-10T02:09:07.296Z,62.20
2022-08-10T02:12:05.090Z,62.32
2022-08-10T02:14:33.224Z,62.14
2022-08-10T02:17:09.480Z,62.10
2022-08-10T02:20:00.344Z,62.07
2022-08-10T02:22:35.704Z,62.54
2022-08-10T02:25:05.657Z,62.86
2022-08-10T02:27:34.150Z,62.86
2022-08-10T02:30:02.789Z,62.89
2022-08-10T02:32:38.004Z,63.27
2022-08-10T02:35:20.140Z,62.96
2022-08-10T02:37:52.987Z,63.33
2022-08-10T02:45:03.528Z,63.17
2022-08-10T02:45:20.984Z,63.21
2022-08-10T02:46:20.955Z,63.36
2022-08-10T02:48:58.036Z,63.31
2022-08-10T02:52:07.023Z,63.23
2022-08-10T02:54:24.377Z,62.94
2022-08-10T02:57:06.617Z,63.42
2022-08-10T02:59:41.528Z,63.43
2022-08-10T03:02:13.564Z,63.44
2022-08-10T03:04:55.872Z,63.55
2022-08-10T03:07:43.230Z,63.66
2022-08-10T03:10:17.711Z,63.88
2022-08-10T03:12:49.501Z,63.97
2022-08-10T03:15:18.901Z,63.91
2022-08-10T03:17:56.733Z,64.13
2022-08-10T03:20:46.585Z,64.10
2022-08-10T03:23:16.605Z,64.14
2022-08-10T03:25:53.396Z,64.01
2022-08-10T03:28:27.965Z,64.11
2022-08-10T03:30:57.259Z,63.94
2022-08-10T03:33:27.378Z,64.10
2022-08-10T03:36:41.485Z,64.23
2022-08-10T03:38:43.679Z,63.86
2022-08-10T03:41:16.474Z,64.02
2022-08-10T03:43:47.866Z,63.91
2022-08-10T03:46:18.633Z,64.41
2022-08-10T03:48:49.936Z,64.34
2022-08-10T03:51:19.520Z,64.28
2022-08-10T03:54:04.974Z,64.01
2022-08-10T03:56:38.428Z,64.05
2022-08-10T03:59:07.862Z,64.07
2022-08-10T04:02:46.227Z,63.81
2022-08-10T04:04:24.547Z,63.95
2022-08-10T04:06:54.646Z,63.90
2022-08-10T04:09:24.153Z,63.70
2022-08-10T04:11:50.996Z,63.69
2022-08-10T04:14:38.521Z,63.78
2022-08-10T04:17:04.885Z,63.65
2022-08-10T04:19:42.019Z,63.76
2022-08-10T04:22:16.760Z,63.83
2022-08-10T04:24:46.663Z,63.62
2022-08-10T04:27:15.207Z,63.63
2022-08-10T04:29:43.577Z,63.31
2022-08-10T04:32:12.941Z,63.81
2022-08-10T04:34:44.395Z,63.71
2022-08-10T04:37:13.132Z,63.66
2022-08-10T04:39:40.688Z,63.73
2022-08-10T04:42:07.903Z,63.85
2022-08-10T04:44:34.929Z,63.90
2022-08-10T04:47:01.833Z,63.83
2022-08-10T04:49:55.679Z,63.70
2022-08-10T04:52:16.057Z,63.65
2022-08-10T04:54:42.948Z,63.73
2022-08-10T04:57:10.108Z,63.99
2022-08-10T04:59:37.050Z,63.71
2022-08-10T05:02:22.893Z,63.42
2022-08-10T05:04:50.880Z,63.46
2022-08-10T05:07:18.670Z,63.21
2022-08-10T05:10:01.332Z,62.81
2022-08-10T05:12:37.922Z,62.11
2022-08-10T05:15:10.635Z,61.97
2022-08-10T05:17:38.621Z,61.86
2022-08-10T05:20:08.625Z,61.32
2022-08-10T05:22:37.854Z,61.00
2022-08-10T05:25:06.794Z,61.23
2022-08-10T05:27:35.028Z,61.49
2022-08-10T05:30:03.628Z,61.49
2022-08-10T05:32:32.971Z,61.14
2022-08-10T05:35:21.273Z,61.04
2022-08-10T05:38:10.596Z,59.97
2022-08-10T05:40:39.404Z,59.63
2022-08-10T05:43:07.086Z,59.02
2022-08-10T05:45:34.063Z,58.41
2022-08-10T05:48:41.994Z,58.19
2022-08-10T05:51:09.394Z,58.50
2022-08-10T05:54:03.615Z,58.02
2022-08-10T05:56:54.937Z,57.86
2022-08-10T06:00:33.270Z,58.41
2022-08-10T06:02:32.867Z,57.58
2022-08-10T06:04:53.164Z,57.55
2022-08-10T06:07:22.105Z,57.67
2022-08-10T06:09:59.214Z,56.88
2022-08-10T06:12:30.513Z,56.81
2022-08-10T06:15:10.199Z,55.94
2022-08-10T06:17:37.580Z,55.39
2022-08-10T06:20:04.951Z,55.32
2022-08-10T06:22:33.367Z,55.72
2022-08-10T06:27:52.069Z,55.40
2022-08-10T06:30:20.378Z,54.77
2022-08-10T06:32:53.710Z,54.44
2022-08-10T06:35:22.452Z,53.33
2022-08-10T06:37:51.810Z,52.90
2022-08-10T06:40:20.411Z,53.41
2022-08-10T06:42:49.042Z,53.82
2022-08-10T06:45:20.171Z,52.46
2022-08-10T06:47:51.855Z,52.05
2022-08-10T06:50:45.025Z,52.91
2022-08-10T06:53:21.728Z,51.90
2022-08-10T06:56:14.464Z,52.37
2022-08-10T06:58:47.635Z,51.76
2022-08-10T07:01:19.067Z,52.15
2022-08-10T07:04:01.438Z,51.08
2022-08-10T07:06:29.700Z,50.95
2022-08-10T07:08:58.005Z,48.69
2022-08-10T07:11:26.378Z,49.08
2022-08-10T07:14:17.315Z,48.14
2022-08-10T07:16:45.570Z,48.73
2022-08-10T07:19:13.948Z,48.15
2022-08-10T07:21:44.383Z,47.55
2022-08-10T07:24:14.358Z,47.36
2022-08-10T07:26:47.192Z,47.81
2022-08-10T07:29:26.566Z,47.49
2022-08-10T07:32:05.594Z,46.41
2022-08-10T07:34:38.177Z,46.21
2022-08-10T07:37:07.834Z,46.92
2022-08-10T07:40:03.874Z,46.91
2022-08-10T07:42:34.734Z,46.63
2022-08-10T07:45:04.149Z,46.30
2022-08-10T07:47:46.304Z,44.54
2022-08-10T07:50:24.590Z,44.09
2022-08-10T07:52:55.549Z,44.71
2022-08-10T07:56:05.362Z,45.00
2022-08-10T07:58:11.824Z,44.11
2022-08-10T08:00:40.707Z,44.57
2022-08-10T08:03:09.494Z,43.14
2022-08-10T08:05:58.514Z,43.77
2022-08-10T08:08:25.104Z,43.46
2022-08-10T08:10:58.114Z,42.99
2022-08-10T08:13:26.160Z,42.99
2022-08-10T08:16:17.580Z,41.22
2022-08-10T08:18:50.983Z,41.79
2022-08-10T08:24:04.587Z,40.75
2022-08-10T08:24:32.315Z,40.36
2022-08-10T08:27:04.144Z,40.36
2022-08-10T08:29:35.370Z,40.83
2022-08-10T08:32:04.852Z,38.90
2022-08-10T08:34:32.951Z,40.08
2022-08-10T08:37:02.693Z,40.08
2022-08-10T08:39:31.981Z,39.59
2022-08-10T08:42:36.211Z,39.64
2022-08-10T08:45:29.762Z,39.46
2022-08-10T08:48:06.517Z,38.37
2022-08-10T08:50:57.829Z,38.06
2022-08-10T08:54:00.960Z,38.18
2022-08-10T08:57:08.171Z,37.53
2022-08-10T08:59:59.805Z,38.31
2022-08-10T09:02:40.638Z,37.26
2022-08-10T09:05:17.238Z,36.55
2022-08-10T09:08:01.558Z,37.35
2022-08-10T09:10:50.333Z,38.01
2022-08-10T09:13:44.403Z,36.80
2022-08-10T09:16:14.136Z,36.72
2022-08-10T09:18:53.426Z,36.10
2022-08-10T09:22:17.450Z,35.56
2022-08-10T09:25:08.871Z,35.22
2022-08-10T09:27:49.708Z,35.35
2022-08-10T09:30:28.368Z,35.25
2022-08-10T09:36:21.259Z,34.33
2022-08-10T09:36:33.403Z,34.66
2022-08-10T09:40:08.481Z,34.59
2022-08-10T09:42:15.898Z,34.88
2022-08-10T09:44:57.439Z,35.75
2022-08-10T09:48:01.196Z,35.60
2022-08-10T09:51:42.099Z,36.17
2022-08-10T09:54:04.639Z,35.18
2022-08-10T09:57:07.144Z,33.10
2022-08-10T10:00:06.141Z,34.37
2022-08-10T10:03:01.601Z,35.03
2022-08-10T10:05:51.230Z,35.00
2022-08-10T10:08:22.143Z,34.89
2022-08-10T10:11:07.769Z,34.87
2022-08-10T10:14:03.491Z,34.04
2022-08-10T10:16:41.991Z,33.71
2022-08-10T10:19:11.927Z,32.39
2022-08-10T10:21:55.765Z,32.56
2022-08-10T10:24:45.843Z,33.03
2022-08-10T10:27:40.749Z,33.85
2022-08-10T10:30:13.574Z,32.96
2022-08-10T10:33:25.286Z,32.54
2022-08-10T10:35:55.688Z,30.86
2022-08-10T10:38:27.077Z,31.63
2022-08-10T10:41:13.390Z,30.80
2022-08-10T10:44:15.522Z,32.47
2022-08-10T10:46:54.314Z,32.92
2022-08-10T10:49:46.138Z,31.50
2022-08-10T10:52:56.809Z,31.75
2022-08-10T10:56:13.400Z,32.79
2022-08-10T10:58:54.701Z,31.98
2022-08-10T11:01:21.739Z,31.41
2022-08-10T11:04:01.603Z,31.20
2022-08-10T11:06:47.466Z,31.58
2022-08-10T11:10:06.089Z,32.16
2022-08-10T11:12:33.962Z,32.71
2022-08-10T11:15:23.592Z,31.02
2022-08-10T11:17:59.288Z,31.65
2022-08-10T11:20:33.261Z,30.37
2022-08-10T11:23:18.537Z,31.28
2022-08-10T11:25:59.843Z,29.96
2022-08-10T11:28:54.734Z,28.88
2022-08-10T11:31:37.926Z,28.58
2022-08-10T11:34:47.305Z,27.98
2022-08-10T11:37:27.456Z,27.09
2022-08-10T11:40:00.496Z,27.78
2022-08-10T11:43:05.042Z,26.80
2022-08-10T11:45:36.933Z,26.67
2022-08-10T11:48:53.070Z,27.90
2022-08-10T11:51:21.440Z,27.76
2022-08-10T11:54:05.600Z,27.42
2022-08-10T11:56:45.400Z,27.04
2022-08-10T11:59:32.958Z,27.30
2022-08-10T12:02:00.355Z,27.45
2022-08-10T12:04:29.428Z,27.43
2022-08-10T12:06:58.079Z,27.68
2022-08-10T12:10:11.122Z,27.37
2022-08-10T12:12:14.257Z,28.23
2022-08-10T12:14:57.243Z,28.84
2022-08-10T12:17:52.162Z,27.00
2022-08-10T12:20:33.102Z,26.80
2022-08-10T12:23:20.313Z,25.26
2022-08-10T12:26:07.620Z,24.92
2022-08-10T12:28:51.512Z,24.39
2022-08-10T12:31:38.907Z,25.54
2022-08-10T12:34:26.852Z,24.12
2022-08-10T12:37:12.033Z,23.76
2022-08-10T12:40:31.274Z,24.02
2022-08-10T12:44:07.842Z,23.71
2022-08-10T12:46:19.395Z,24.93
2022-08-10T12:49:05.112Z,25.19
2022-08-10T12:51:35.610Z,25.31
2022-08-10T12:54:13.776Z,23.83
2022-08-10T12:57:07.986Z,25.91
2022-08-10T12:59:47.669Z,26.39
2022-08-10T13:02:21.914Z,26.15
2022-08-10T13:04:52.059Z,25.41
2022-08-10T13:08:03.486Z,24.73
2022-08-10T13:10:31.202Z,25.08
2022-08-10T13:12:59.621Z,25.25
2022-08-10T13:15:49.356Z,26.07
2022-08-10T13:18:23.112Z,27.09
2022-08-10T13:20:56.059Z,26.13
2022-08-10T13:23:28.389Z,24.36
2022-08-10T13:25:58.952Z,23.33
2022-08-10T13:28:39.895Z,24.61
2022-08-10T13:31:17.396Z,24.99
2022-08-10T13:34:39.593Z,24.56
2022-08-10T13:36:38.992Z,25.12
2022-08-10T13:39:07.407Z,23.69
2022-08-10T13:41:42.748Z,24.14
2022-08-10T13:44:13.269Z,25.24
2022-08-10T13:46:47.878Z,26.40
2022-08-10T13:49:16.012Z,26.09
2022-08-10T13:51:57.274Z,25.78
2022-08-10T13:54:29.253Z,25.08
2022-08-10T13:56:57.986Z,25.11
2022-08-10T14:00:36.981Z,24.86
2022-08-10T14:02:25.282Z,25.46
2022-08-10T14:04:55.697Z,25.11
2022-08-10T14:07:24.417Z,26.31
2022-08-10T14:09:53.265Z,26.25
2022-08-10T14:12:32.178Z,25.85
2022-08-10T14:15:03.515Z,25.87
2022-08-10T14:17:32.092Z,25.50
2022-08-10T14:20:03.368Z,24.81
2022-08-10T14:22:33.709Z,23.95
2022-08-10T14:25:15.048Z,23.11
2022-08-10T14:28:02.811Z,24.34
2022-08-10T14:30:32.438Z,25.05
2022-08-10T14:33:04.544Z,24.63
2022-08-10T14:36:21.558Z,25.29
2022-08-10T14:38:32.100Z,25.59
2022-08-10T14:41:02.543Z,24.90
2022-08-10T14:43:40.363Z,25.68
2022-08-10T14:46:11.085Z,25.11
2022-08-10T14:48:43.558Z,25.59
2022-08-10T14:51:15.706Z,26.14
2022-08-10T14:53:45.730Z,25.94
2022-08-10T14:56:15.468Z,26.23
2022-08-10T14:58:59.324Z,25.71
2022-08-10T15:02:00.001Z,26.41
2022-08-10T15:04:24.899Z,26.90
2022-08-10T15:06:57.618Z,26.31
2022-08-10T15:09:28.293Z,25.62
2022-08-10T15:12:13.614Z,25.93
2022-08-10T15:14:48.300Z,25.16
2022-08-10T15:17:35.338Z,24.63
2022-08-10T15:20:15.657Z,25.30
2022-08-10T15:23:31.112Z,26.97
2022-08-10T15:26:11.223Z,26.21
2022-08-10T15:29:22.195Z,27.18
2022-08-10T15:31:34.877Z,26.98
2022-08-10T15:34:28.818Z,27.91
2022-08-10T15:37:40.588Z,26.87
2022-08-10T15:40:24.841Z,27.21
2022-08-10T15:43:20.352Z,26.88
2022-08-10T15:46:15.971Z,27.32
2022-08-10T15:49:03.166Z,26.79
2022-08-10T15:51:53.778Z,26.94
2022-08-10T15:54:39.705Z,27.18
2022-08-10T15:57:18.127Z,27.94
2022-08-10T15:59:55.088Z,28.66
2022-08-10T16:02:26.228Z,28.69
2022-08-10T16:05:08.126Z,28.85
2022-08-10T16:07:46.145Z,28.14
2022-08-10T16:10:26.110Z,28.12
2022-08-10T16:13:01.099Z,28.31
2022-08-10T16:15:30.368Z,28.00
2022-08-10T16:18:11.801Z,28.05
2022-08-10T16:20:54.897Z,27.85
2022-08-10T16:23:42.543Z,28.00
2022-08-10T16:26:15.452Z,27.58
2022-08-10T16:28:56.303Z,28.33
2022-08-10T16:31:25.703Z,28.00
2022-08-10T16:33:56.838Z,27.83
2022-08-10T16:36:52.656Z,27.56
2022-08-10T16:39:58.058Z,28.07
2022-08-10T16:42:18.335Z,28.15
2022-08-10T16:45:07.748Z,27.89
2022-08-10T16:47:54.118Z,27.86
2022-08-10T16:50:36.680Z,28.84
2022-08-10T16:53:07.037Z,28.80
2022-08-10T16:55:48.284Z,29.00
2022-08-10T16:58:21.231Z,29.05
2022-08-10T17:00:50.814Z,28.81
2022-08-10T17:04:08.302Z,29.27
2022-08-10T17:06:19.086Z,29.22
2022-08-10T17:08:53.799Z,29.09
2022-08-10T17:11:23.668Z,29.23
2022-08-10T17:13:52.050Z,29.82
2022-08-10T17:16:19.658Z,30.19
2022-08-10T17:18:48.379Z,30.50
2022-08-10T17:21:20.814Z,30.77
2022-08-10T17:23:51.690Z,31.76
2022-08-10T17:26:23.918Z,32.36
2022-08-10T17:29:53.757Z,32.75
2022-08-10T17:32:04.901Z,33.45
2022-08-10T17:34:36.602Z,34.07
2022-08-10T17:37:11.368Z,34.26
2022-08-10T17:39:52.378Z,35.11
2022-08-10T17:42:22.051Z,35.29
2022-08-10T17:44:53.081Z,35.67
2022-08-10T17:47:24.421Z,36.04
2022-08-10T17:49:59.069Z,36.48
2022-08-10T17:52:30.623Z,36.90
2022-08-10T17:55:05.294Z,37.30
2022-08-10T17:57:38.045Z,37.53
2022-08-10T18:00:13.064Z,38.06
2022-08-10T18:02:44.004Z,37.97
2022-08-10T18:05:12.550Z,38.63
2022-08-10T18:07:45.939Z,38.94
2022-08-10T18:10:16.755Z,39.66
2022-08-10T18:12:51.318Z,39.27
2022-08-10T18:15:24.975Z,39.38
2022-08-10T18:17:59.133Z,39.92
2022-08-10T18:20:34.704Z,41.63
2022-08-10T18:23:01.829Z,41.54
2022-08-10T18:25:33.081Z,41.71
2022-08-10T18:28:05.092Z,42.09
2022-08-10T18:30:45.149Z,42.43
2022-08-10T18:33:14.337Z,42.79
2022-08-10T18:35:44.116Z,46.64
2022-08-10T18:38:12.901Z,47.50
2022-08-10T18:40:43.688Z,46.93
2022-08-10T18:44:06.777Z,45.06
2022-08-10T18:46:00.637Z,43.88
2022-08-10T18:48:38.821Z,43.34
2022-08-10T18:51:07.783Z,42.93
2022-08-10T18:53:48.519Z,41.80
2022-08-10T18:56:21.467Z,41.47
2022-08-10T18:59:05.102Z,41.34
2022-08-10T19:02:10.712Z,42.23
2022-08-10T19:04:55.469Z,42.26
2022-08-10T19:07:49.228Z,42.67
2022-08-10T19:10:35.676Z,43.10
2022-08-10T19:13:28.797Z,43.65
2022-08-10T19:16:15.010Z,43.44
2022-08-10T19:18:47.755Z,43.83
2022-08-10T19:21:21.087Z,43.84
2022-08-10T19:24:09.855Z,44.31
2022-08-10T19:26:57.138Z,43.75
2022-08-10T19:30:08.221Z,43.56
2022-08-10T19:32:55.798Z,43.64
2022-08-10T19:35:28.732Z,43.73
2022-08-10T19:38:19.916Z,44.08
2022-08-10T19:41:17.046Z,43.94
2022-08-10T19:44:21.400Z,44.20
2022-08-10T19:46:59.810Z,43.98
2022-08-10T19:49:41.575Z,45.11
2022-08-10T19:52:27.227Z,45.51
2022-08-10T19:55:25.420Z,45.73
2022-08-10T19:58:04.960Z,46.27
2022-08-10T20:01:05.121Z,46.87
2022-08-10T20:03:38.021Z,46.47
2022-08-10T20:06:28.430Z,46.72
2022-08-10T20:09:30.263Z,46.86
2022-08-10T20:12:01.226Z,46.92
2022-08-10T20:14:42.717Z,47.04
2022-08-10T20:17:23.291Z,47.02
2022-08-10T20:20:05.762Z,47.25
2022-08-10T20:22:39.270Z,47.57
2022-08-10T20:25:29.774Z,47.54
2022-08-10T20:28:11.818Z,47.62
2022-08-10T20:30:46.798Z,47.64
2022-08-10T20:33:40.635Z,48.15
2022-08-10T20:36:21.892Z,48.06
2022-08-10T20:39:04.512Z,48.10
2022-08-10T20:41:58.977Z,48.06
2022-08-10T20:44:32.044Z,48.33
2022-08-10T20:47:18.679Z,48.61
2022-08-10T20:50:00.157Z,48.97
2022-08-10T20:52:28.804Z,48.78
2022-08-10T20:55:02.249Z,48.98
2022-08-10T20:58:02.780Z,49.01
2022-08-10T21:00:49.896Z,49.48
2022-08-10T21:03:51.557Z,49.77
2022-08-10T21:07:06.413Z,49.81
2022-08-10T21:10:33.650Z,49.81
2022-08-10T21:13:22.136Z,49.89
2022-08-10T21:16:20.284Z,49.47
2022-08-10T21:19:24.160Z,49.66
2022-08-10T21:21:59.837Z,49.66
2022-08-10T21:24:35.735Z,49.08
2022-08-10T21:27:40.683Z,49.33
2022-08-10T21:30:12.368Z,49.29
2022-08-10T21:32:56.719Z,48.87
2022-08-10T21:35:36.230Z,49.16
2022-08-10T21:38:11.086Z,49.22
2022-08-10T21:44:23.507Z,49.15
2022-08-10T21:47:42.491Z,49.44
2022-08-10T21:50:43.343Z,49.20
2022-08-10T21:53:47.639Z,49.21
2022-08-10T21:56:48.270Z,49.10
2022-08-10T21:59:57.136Z,49.01
2022-08-10T22:02:50.310Z,49.36
2022-08-10T22:05:44.331Z,49.30
2022-08-10T22:08:33.204Z,49.66
2022-08-10T22:11:21.682Z,49.34
2022-08-10T22:14:10.446Z,49.60
2022-08-10T22:18:01.016Z,49.86
2022-08-10T22:20:32.817Z,50.34
2022-08-10T22:23:40.663Z,50.78
2022-08-10T22:26:29.152Z,50.34
2022-08-10T22:29:18.837Z,50.32
2022-08-10T22:31:25.112Z,49.02
2022-08-10T22:32:15.765Z,50.28
2022-08-10T22:35:11.149Z,50.43
2022-08-10T22:38:30.867Z,50.60
2022-08-10T22:41:26.133Z,50.54
2022-08-10T22:44:18.503Z,50.75
2022-08-10T22:47:05.722Z,50.83
2022-08-10T22:49:32.751Z,50.76
2022-08-10T22:52:16.974Z,50.63
2022-08-10T22:55:15.831Z,50.50
2022-08-10T22:58:09.288Z,50.84
2022-08-10T23:00:37.612Z,50.40
2022-08-10T23:03:15.820Z,50.58
2022-08-10T23:06:03.975Z,50.83
2022-08-10T23:09:00.636Z,50.85
2022-08-10T23:11:43.790Z,51.31
2022-08-10T23:14:12.236Z,51.40
2022-08-10T23:17:08.474Z,51.28
2022-08-10T23:19:48.594Z,51.73
2022-08-10T23:22:18.626Z,52.10
2022-08-10T23:25:05.791Z,52.34
2022-08-10T23:27:38.265Z,52.53
2022-08-10T23:30:17.658Z,52.81
2022-08-10T23:32:51.427Z,52.77
2022-08-10T23:36:29.690Z,52.68
2022-08-10T23:38:10.801Z,52.74
2022-08-10T23:40:43.408Z,51.86
2022-08-10T23:43:16.908Z,51.70
2022-08-10T23:45:53.414Z,52.18
2022-08-10T23:48:29.706Z,52.58
2022-08-10T23:51:01.314Z,52.08
2022-08-10T23:53:32.570Z,52.31
2022-08-10T23:56:02.349Z,52.42
2022-08-10T23:58:35.794Z,52.59
